Time;durP1;ratioP1;P1;durP2;ratioP2;P2;SDS_P1;SDS_P2;PMS_P1;PMS_P2;Temp;Humidity;BMP_temperature;BMP_pressure;BME280_temperature;BME280_humidity;BME280_pressure;Samples;Min_cycle;Max_cycle;Signal;HPM_P1;HPM_P2
2022/05/21 00:02:11;;;;;;;12.52;3.00;;;12.50;99.90;;;;;;5094692;28;20028;-65
2022/05/21 00:04:41;;;;;;;10.73;1.88;;;12.50;99.90;;;;;;5085044;28;20039;-66
2022/05/21 00:07:08;;;;;;;9.20;2.03;;;12.50;99.90;;;;;;5078986;28;20043;-66
2022/05/21 00:09:34;;;;;;;20.58;2.10;;;12.50;99.90;;;;;;5094059;28;20039;-67
2022/05/21 00:12:00;;;;;;;10.23;2.53;;;12.50;99.90;;;;;;5094672;28;20028;-67
2022/05/21 00:14:26;;;;;;;12.95;2.85;;;12.50;99.90;;;;;;5094567;28;20046;-68
2022/05/21 00:16:52;;;;;;;10.55;2.03;;;12.50;99.90;;;;;;5086135;28;20031;-67
2022/05/21 00:19:17;;;;;;;7.88;1.52;;;12.50;99.90;;;;;;5094689;28;20075;-70
2022/05/21 00:21:43;;;;;;;9.70;2.38;;;12.50;99.90;;;;;;5094588;28;20451;-69
2022/05/21 00:24:09;;;;;;;16.90;2.90;;;12.50;99.90;;;;;;5095430;28;20048;-69
2022/05/21 00:26:34;;;;;;;10.85;2.28;;;12.50;99.90;;;;;;5089241;28;20135;-67
2022/05/21 00:29:00;;;;;;;10.05;1.63;;;12.50;99.90;;;;;;5094449;28;20036;-68
2022/05/21 00:31:26;;;;;;;14.90;2.38;;;12.40;99.90;;;;;;5094206;28;20032;-68
2022/05/21 00:33:51;;;;;;;15.80;2.85;;;12.30;99.90;;;;;;5094219;28;20419;-68
2022/05/21 00:36:17;;;;;;;5.70;1.65;;;12.30;99.90;;;;;;5083239;28;20055;-66
2022/05/21 00:38:44;;;;;;;11.70;2.22;;;12.20;99.90;;;;;;5085850;28;20047;-67
2022/05/21 00:41:13;;;;;;;12.18;2.08;;;12.20;99.90;;;;;;5094090;28;20024;-67
2022/05/21 00:43:54;;;;;;;13.23;2.35;;;12.20;99.90;;;;;;5086778;28;20077;-67
2022/05/21 00:46:23;;;;;;;11.38;3.00;;;12.10;99.90;;;;;;5079706;28;20440;-67
2022/05/21 00:49:35;;;;;;;14.20;3.60;;;12.10;99.90;;;;;;5092896;28;20058;-67
2022/05/21 00:52:19;;;;;;;7.20;1.20;;;12.10;99.90;;;;;;5089568;28;20127;-68
2022/05/21 00:54:48;;;;;;;14.07;2.22;;;12.10;99.90;;;;;;5093659;28;20028;-68
2022/05/21 00:57:24;;;;;;;10.18;1.75;;;12.00;99.90;;;;;;5077282;28;20025;-67
2022/05/21 00:59:54;;;;;;;20.20;2.10;;;12.00;99.90;;;;;;5093661;28;20038;-67
2022/05/21 01:02:32;;;;;;;10.32;1.70;;;12.00;99.90;;;;;;5092803;28;20020;-67
2022/05/21 01:05:02;;;;;;;12.25;1.67;;;12.10;99.90;;;;;;5093366;28;20048;-67
2022/05/21 01:07:28;;;;;;;8.35;1.33;;;12.10;99.90;;;;;;5089403;28;20127;-66
2022/05/21 01:09:56;;;;;;;7.30;1.57;;;12.10;99.90;;;;;;5092850;28;20101;-66
2022/05/21 01:12:23;;;;;;;;;;;12.10;99.90;;;;;;5091282;28;20470;-68
2022/05/21 01:14:51;;;;;;;12.32;2.53;;;12.10;99.90;;;;;;5073654;28;19934;-68
2022/05/21 01:17:22;;;;;;;8.45;2.25;;;12.10;99.90;;;;;;5082353;28;20089;-67
2022/05/21 01:20:08;;;;;;;13.38;1.60;;;12.00;99.90;;;;;;5072756;28;20060;-67
2022/05/21 01:22:45;;;;;;;8.15;1.30;;;12.00;99.90;;;;;;5092670;28;20036;-68
2022/05/21 01:25:12;;;;;;;12.68;1.70;;;11.90;99.90;;;;;;5088633;28;20085;-68
2022/05/21 01:27:39;;;;;;;9.48;2.10;;;11.90;99.90;;;;;;5109334;27;20032;-68
2022/05/21 01:30:08;;;;;;;10.55;2.00;;;11.90;99.90;;;;;;5092982;28;20035;-68
2022/05/21 01:32:34;;;;;;;6.32;1.33;;;11.80;99.90;;;;;;5092870;28;20451;-68
2022/05/21 01:35:00;;;;;;;4.82;1.17;;;11.80;99.90;;;;;;5092816;28;20111;-68
2022/05/21 01:37:25;;;;;;;10.38;2.53;;;11.80;99.90;;;;;;5073902;28;20120;-68
2022/05/21 01:39:51;;;;;;;10.43;1.30;;;11.80;99.90;;;;;;5089128;28;20065;-67
2022/05/21 01:42:17;;;;;;;15.07;1.90;;;11.80;99.90;;;;;;5092129;28;20032;-67
2022/05/21 01:44:42;;;;;;;9.85;1.30;;;11.80;99.90;;;;;;5086051;28;20416;-66
2022/05/21 01:47:11;;;;;;;5.50;1.40;;;11.90;99.90;;;;;;5081571;28;20072;-67
2022/05/21 01:49:39;;;;;;;9.55;1.83;;;11.90;99.90;;;;;;5092423;28;20115;-67
2022/05/21 01:52:06;;;;;;;10.23;1.75;;;12.00;99.90;;;;;;5092701;28;20035;-67
2022/05/21 01:54:32;;;;;;;7.13;1.95;;;12.00;99.90;;;;;;5093054;28;20117;-68
2022/05/21 01:56:59;;;;;;;5.38;1.23;;;11.90;99.90;;;;;;5087379;28;20491;-67
2022/05/21 01:59:24;;;;;;;5.82;1.15;;;11.90;99.90;;;;;;5091857;28;20507;-68
2022/05/21 02:01:50;;;;;;;8.95;1.73;;;11.90;99.90;;;;;;5092114;28;20032;-67
2022/05/21 02:04:17;;;;;;;12.80;1.63;;;12.00;99.90;;;;;;5087941;28;20060;-68
2022/05/21 02:06:43;;;;;;;8.65;1.65;;;12.00;99.90;;;;;;5080095;28;20534;-69
2022/05/21 02:09:10;;;;;;;10.27;2.78;;;12.10;99.90;;;;;;5095430;28;20036;-67
2022/05/21 02:11:36;;;;;;;3.17;0.75;;;12.10;99.90;;;;;;5086248;28;20020;-65
2022/05/21 02:14:02;;;;;;;6.00;1.48;;;12.10;99.90;;;;;;5092073;28;20544;-68
2022/05/21 02:16:28;;;;;;;6.32;1.98;;;12.20;99.90;;;;;;5089945;28;20024;-66
2022/05/21 02:18:54;;;;;;;6.20;1.10;;;12.20;99.90;;;;;;5092519;28;20073;-66
2022/05/21 02:21:20;;;;;;;7.13;1.33;;;12.20;99.90;;;;;;5092089;28;20119;-68
2022/05/21 02:23:47;;;;;;;6.97;1.70;;;12.20;99.90;;;;;;5088176;28;20393;-67
2022/05/21 02:26:15;;;;;;;3.25;1.02;;;12.10;99.90;;;;;;5083605;28;20028;-67
2022/05/21 02:28:40;;;;;;;6.88;1.27;;;12.10;99.90;;;;;;5091828;28;20031;-67
2022/05/21 02:31:06;;;;;;;6.32;0.80;;;12.10;99.90;;;;;;5091688;28;20032;-67
2022/05/21 02:33:32;;;;;;;10.25;1.05;;;12.10;99.90;;;;;;5090722;28;20091;-68
2022/05/21 02:35:57;;;;;;;9.57;1.23;;;12.10;99.90;;;;;;5091030;28;20515;-68
2022/05/21 02:41:12;;;;;;;6.50;0.65;;;12.10;99.90;;;;;;5092052;28;20129;-68
2022/05/21 02:43:38;;;;;;;6.72;0.90;;;12.10;99.90;;;;;;5092008;28;20073;-68
2022/05/21 02:46:03;;;;;;;12.07;2.05;;;12.10;99.90;;;;;;5091118;28;20020;-68
2022/05/21 02:48:30;;;;;;;6.38;1.52;;;12.10;99.90;;;;;;5091558;28;20059;-67
2022/05/21 02:50:56;;;;;;;2.50;1.17;;;12.10;99.90;;;;;;5091686;28;20440;-67
2022/05/21 02:53:22;;;;;;;8.77;1.23;;;12.00;99.90;;;;;;5089910;28;20107;-67
2022/05/21 02:55:49;;;;;;;4.30;0.63;;;12.00;99.90;;;;;;5090034;28;20115;-68
2022/05/21 02:58:15;;;;;;;5.72;1.55;;;12.00;99.90;;;;;;5091452;28;20056;-66
2022/05/21 03:00:43;;;;;;;5.30;0.88;;;12.10;99.90;;;;;;5091887;28;20024;-66
2022/05/21 03:03:09;;;;;;;5.63;1.15;;;12.10;99.90;;;;;;5075892;28;20025;-68
2022/05/21 03:05:35;;;;;;;5.38;1.67;;;12.10;99.90;;;;;;5086258;28;20070;-69
2022/05/21 03:10:20;;;;;;;8.85;2.10;;;12.10;99.90;;;;;;5086608;28;20518;-68
2022/05/21 03:10:47;;;;;;;9.60;0.90;;;12.00;99.90;;;;;;5079066;28;20031;-67
2022/05/21 03:13:12;;;;;;;4.13;0.80;;;12.00;99.90;;;;;;5095740;28;20103;-68
2022/05/21 03:15:39;;;;;;;3.70;0.82;;;12.00;99.90;;;;;;5088602;28;20052;-68
2022/05/21 03:18:09;;;;;;;6.35;0.73;;;12.00;99.90;;;;;;5075788;28;20246;-69
2022/05/21 03:20:35;;;;;;;8.25;1.20;;;11.90;99.90;;;;;;5088177;28;20058;-67
2022/05/21 03:23:01;;;;;;;6.10;0.90;;;11.90;99.90;;;;;;5094092;28;20040;-68
2022/05/21 03:25:27;;;;;;;8.13;1.17;;;11.90;99.90;;;;;;5090906;28;20074;-66
2022/05/21 03:27:53;;;;;;;9.43;1.42;;;11.90;99.90;;;;;;5095416;28;20059;-68
2022/05/21 03:30:22;;;;;;;4.50;0.77;;;11.90;99.90;;;;;;5095218;28;20114;-68
2022/05/21 03:32:48;;;;;;;6.20;1.25;;;11.90;99.90;;;;;;5093993;28;20028;-68
2022/05/21 03:35:16;;;;;;;5.85;0.80;;;11.80;99.90;;;;;;5093096;28;20496;-68
2022/05/21 03:37:42;;;;;;;4.70;0.80;;;11.80;99.90;;;;;;5089914;28;20171;-68
2022/05/21 03:40:11;;;;;;;8.35;1.13;;;11.70;99.90;;;;;;5094975;28;20040;-67
2022/05/21 03:42:37;;;;;;;4.07;1.13;;;11.70;99.90;;;;;;5095008;28;20035;-68
2022/05/21 03:45:04;;;;;;;2.90;1.33;;;11.60;99.90;;;;;;5095099;28;20442;-68
2022/05/21 03:47:29;;;;;;;6.13;0.82;;;11.60;99.90;;;;;;5092410;28;20484;-69
2022/05/21 03:49:55;;;;;;;5.22;1.10;;;11.50;99.90;;;;;;5094964;28;20031;-68
2022/05/21 03:52:21;;;;;;;8.50;1.10;;;11.50;99.90;;;;;;5094921;28;20604;-68
2022/05/21 03:54:47;;;;;;;3.78;1.08;;;11.40;99.90;;;;;;5085216;28;20056;-68
2022/05/21 03:57:15;;;;;;;8.38;1.30;;;11.40;99.90;;;;;;5092200;28;20021;-68
2022/05/21 03:59:41;;;;;;;3.58;1.00;;;11.30;99.90;;;;;;5095327;28;20043;-68
2022/05/21 04:02:07;;;;;;;7.80;1.30;;;11.30;99.90;;;;;;5094365;28;20164;-68
2022/05/21 04:04:33;;;;;;;6.03;1.05;;;11.20;99.90;;;;;;5095004;28;20429;-68
2022/05/21 04:06:58;;;;;;;8.98;1.27;;;11.20;99.90;;;;;;5078658;28;20111;-68
2022/05/21 04:09:28;;;;;;;5.22;1.27;;;11.10;99.90;;;;;;5074586;28;20119;-69
2022/05/21 04:11:55;;;;;;;4.75;1.25;;;11.10;99.90;;;;;;5091276;28;20028;-68
2022/05/21 04:14:21;;;;;;;6.10;1.20;;;11.10;99.90;;;;;;5094712;28;20035;-68
2022/05/21 04:16:47;;;;;;;2.85;1.08;;;11.00;99.90;;;;;;5086011;28;20081;-68
2022/05/21 04:19:13;;;;;;;4.85;1.33;;;11.10;99.90;;;;;;5094586;28;20425;-68
2022/05/21 04:21:38;;;;;;;4.53;1.30;;;11.10;99.90;;;;;;5094087;28;20448;-68
2022/05/21 04:24:04;;;;;;;9.50;1.30;;;11.10;99.90;;;;;;5094098;28;20067;-68
2022/05/21 04:26:30;;;;;;;6.78;1.65;;;11.20;99.90;;;;;;5086592;28;20040;-68
2022/05/21 04:28:56;;;;;;;8.60;0.93;;;11.20;99.90;;;;;;5080010;28;20016;-68
2022/05/21 04:31:22;;;;;;;8.02;2.17;;;11.30;99.90;;;;;;5093800;28;20551;-69
2022/05/21 04:33:47;;;;;;;13.70;1.42;;;11.30;99.90;;;;;;5094211;28;20494;-67
2022/05/21 04:36:19;;;;;;;5.53;1.50;;;11.30;99.90;;;;;;5089945;28;20032;-69
2022/05/21 04:38:51;;;;;;;5.68;1.27;;;11.40;99.90;;;;;;5094153;28;20111;-67
2022/05/21 04:41:19;;;;;;;10.80;1.33;;;11.40;99.90;;;;;;5093670;28;20039;-68
2022/05/21 04:43:45;;;;;;;10.55;1.75;;;11.50;99.90;;;;;;5094221;28;20036;-68
2022/05/21 04:46:11;;;;;;;4.35;1.17;;;11.70;99.90;;;;;;5083904;28;20111;-67
2022/05/21 04:48:37;;;;;;;7.57;1.00;;;11.70;99.90;;;;;;5088071;28;20047;-68
2022/05/21 04:51:04;;;;;;;9.77;1.80;;;11.70;99.90;;;;;;5089956;28;20067;-68
2022/05/21 04:53:31;;;;;;;10.40;1.75;;;11.80;99.90;;;;;;5089995;28;20539;-65
2022/05/21 04:55:57;;;;;;;1.60;1.00;;;11.80;99.90;;;;;;5093707;28;20029;-67
2022/05/21 04:58:23;;;;;;;9.95;1.55;;;11.80;99.90;;;;;;5093819;28;20024;-68
2022/05/21 05:00:49;;;;;;;6.68;1.60;;;11.80;99.90;;;;;;5092070;28;20035;-68
2022/05/21 05:03:16;;;;;;;5.10;1.27;;;11.80;99.90;;;;;;5084599;28;20438;-68
2022/05/21 05:05:44;;;;;;;7.90;1.10;;;11.80;99.90;;;;;;5093541;28;20029;-68
2022/05/21 05:08:10;;;;;;;7.05;1.25;;;11.80;99.90;;;;;;5093850;28;20104;-67
2022/05/21 05:10:36;;;;;;;9.00;1.25;;;11.70;99.90;;;;;;5093055;28;20053;-68
2022/05/21 05:13:05;;;;;;;1.30;1.00;;;11.80;99.90;;;;;;5081272;28;20028;-68
2022/05/21 05:15:32;;;;;;;11.93;1.45;;;11.80;99.90;;;;;;5092978;28;20024;-68
2022/05/21 05:18:07;;;;;;;5.63;1.45;;;11.80;99.90;;;;;;5093454;28;20036;-67
2022/05/21 05:20:33;;;;;;;3.13;0.95;;;11.90;99.90;;;;;;5086854;28;20043;-68
2022/05/21 05:22:59;;;;;;;3.67;1.42;;;11.90;99.90;;;;;;5090878;28;20028;-68
2022/05/21 05:25:25;;;;;;;6.07;1.08;;;12.00;99.90;;;;;;5093061;28;20032;-68
2022/05/21 05:27:52;;;;;;;8.48;1.13;;;12.00;99.90;;;;;;5093575;28;20051;-68
2022/05/21 05:30:19;;;;;;;13.40;1.35;;;12.10;99.90;;;;;;5093030;28;20068;-68
2022/05/21 05:32:45;;;;;;;;;;;12.20;99.90;;;;;;5090384;28;20391;-69
2022/05/21 05:35:12;;;;;;;10.05;1.50;;;12.20;99.90;;;;;;5090945;28;19904;-68
2022/05/21 05:37:38;;;;;;;11.20;1.27;;;12.20;99.90;;;;;;5082962;28;20028;-69
2022/05/21 05:40:07;;;;;;;6.55;1.17;;;12.30;99.90;;;;;;5073993;28;20285;-67
2022/05/21 05:42:35;;;;;;;6.13;1.00;;;12.30;99.90;;;;;;5075931;28;20033;-69
2022/05/21 05:45:01;;;;;;;12.13;1.98;;;12.30;99.90;;;;;;5088384;28;20046;-68
2022/05/21 05:47:27;;;;;;;7.93;0.82;;;12.40;99.90;;;;;;5091430;28;20115;-68
2022/05/21 05:49:53;;;;;;;5.45;0.93;;;12.40;99.90;;;;;;5090931;28;20024;-68
2022/05/21 05:52:19;;;;;;;10.65;1.00;;;12.40;99.90;;;;;;5077102;28;20028;-69
2022/05/21 05:54:45;;;;;;;2.88;1.02;;;12.50;99.90;;;;;;5092797;28;20028;-68
2022/05/21 05:57:11;;;;;;;6.07;1.33;;;12.50;99.90;;;;;;5084859;28;20031;-67
2022/05/21 05:59:50;;;;;;;3.95;1.00;;;12.50;99.90;;;;;;5078171;28;20024;-68
2022/05/21 06:05:07;;;;;;;6.57;1.77;;;12.70;99.90;;;;;;5092574;28;20043;-68
2022/05/21 06:07:33;;;;;;;4.03;1.10;;;12.80;99.90;;;;;;5092276;28;20028;-68
2022/05/21 06:10:06;;;;;;;8.23;1.20;;;12.90;99.90;;;;;;5090831;28;20039;-67
2022/05/21 06:12:32;;;;;;;9.38;1.38;;;12.90;99.90;;;;;;5092458;28;20434;-68
2022/05/21 06:14:58;;;;;;;3.55;0.90;;;13.00;99.90;;;;;;5092420;28;20049;-68
2022/05/21 06:17:25;;;;;;;10.75;1.70;;;13.10;99.90;;;;;;5087144;28;20051;-68
2022/05/21 06:19:52;;;;;;;4.00;1.45;;;13.20;99.90;;;;;;5076458;28;20024;-68
2022/05/21 06:22:18;;;;;;;3.95;1.55;;;13.30;99.90;;;;;;5090621;28;20032;-69
2022/05/21 06:24:43;;;;;;;4.15;1.10;;;13.30;99.90;;;;;;5092242;28;20084;-67
2022/05/21 06:27:09;;;;;;;6.30;1.45;;;13.50;99.90;;;;;;5090239;28;20048;-68
2022/05/21 06:29:38;;;;;;;5.13;0.90;;;13.60;99.90;;;;;;5091017;28;20032;-68
2022/05/21 06:32:05;;;;;;;7.55;1.38;;;13.60;99.90;;;;;;5092091;28;20122;-68
2022/05/21 06:34:31;;;;;;;8.23;1.15;;;13.60;99.90;;;;;;5082714;28;20488;-68
2022/05/21 06:37:06;;;;;;;10.32;1.80;;;13.70;99.90;;;;;;5085375;28;20503;-68
2022/05/21 06:39:33;;;;;;;5.68;1.13;;;13.60;99.90;;;;;;5082000;28;20111;-68
2022/05/21 06:42:00;;;;;;;6.32;1.70;;;13.60;99.90;;;;;;5092155;28;20119;-67
2022/05/21 06:44:26;;;;;;;7.57;0.85;;;13.50;99.90;;;;;;5092018;28;20036;-66
2022/05/21 06:46:53;;;;;;;7.55;0.90;;;13.60;99.90;;;;;;5077306;28;20071;-68
2022/05/21 06:49:20;;;;;;;9.20;1.57;;;13.70;99.90;;;;;;5091662;28;20073;-68
2022/05/21 06:51:45;;;;;;;1.83;0.70;;;13.90;99.90;;;;;;5091100;28;20268;-67
2022/05/21 06:54:11;;;;;;;4.57;0.90;;;14.10;99.90;;;;;;5091162;28;20107;-67
2022/05/21 06:56:40;;;;;;;6.72;1.42;;;14.20;99.90;;;;;;5091548;28;20098;-68
2022/05/21 06:59:05;;;;;;;5.60;2.15;;;14.10;99.90;;;;;;5077141;28;20059;-68
2022/05/21 07:01:31;;;;;;;8.27;1.45;;;14.20;99.90;;;;;;5087934;28;20060;-67
2022/05/21 07:03:57;;;;;;;7.55;1.10;;;14.20;99.90;;;;;;5091845;28;20078;-67
2022/05/21 07:09:07;;;;;;;7.57;0.70;;;14.30;99.90;;;;;;5072069;28;20074;-68
2022/05/21 07:11:33;;;;;;;4.97;0.95;;;14.30;99.90;;;;;;5071371;28;20037;-68
2022/05/21 07:13:59;;;;;;;4.50;0.90;;;14.30;99.90;;;;;;5093593;28;20411;-67
2022/05/21 07:16:25;;;;;;;6.22;1.20;;;14.30;99.90;;;;;;5095173;28;20028;-66
2022/05/21 07:18:50;;;;;;;8.68;0.80;;;14.40;99.90;;;;;;5090079;28;20565;-68
2022/05/21 07:21:18;;;;;;;2.65;0.50;;;14.40;99.90;;;;;;5091671;28;20032;-68
2022/05/21 07:23:45;;;;;;;3.75;0.93;;;14.50;99.90;;;;;;5086832;28;20028;-69
2022/05/21 07:26:11;;;;;;;13.55;1.42;;;14.60;99.90;;;;;;5077573;28;20076;-68
2022/05/21 07:28:37;;;;;;;4.18;0.93;;;14.70;99.90;;;;;;5089597;28;20044;-68
2022/05/21 07:31:04;;;;;;;6.45;1.00;;;14.80;99.90;;;;;;5089889;28;20373;-69
2022/05/21 07:33:30;;;;;;;1.60;0.90;;;15.00;99.90;;;;;;5073388;28;20477;-67
2022/05/21 07:35:57;;;;;;;4.20;0.90;;;15.00;99.90;;;;;;5088469;28;20024;-69
2022/05/21 07:38:23;;;;;;;3.20;1.33;;;15.10;99.90;;;;;;5076317;28;20033;-67
2022/05/21 07:40:50;;;;;;;6.72;1.08;;;15.20;99.90;;;;;;5086518;28;20264;-67
2022/05/21 07:43:20;;;;;;;12.55;1.92;;;15.40;99.90;;;;;;5102781;28;20535;-68
2022/05/21 07:45:47;;;;;;;8.85;1.33;;;15.40;99.90;;;;;;5090579;28;20046;-70
2022/05/21 07:48:16;;;;;;;6.50;1.23;;;15.40;99.50;;;;;;5091039;28;20035;-67
2022/05/21 07:50:48;;;;;;;7.30;1.95;;;15.20;99.70;;;;;;5087017;28;20024;-68
2022/05/21 07:53:17;;;;;;;7.72;1.38;;;14.90;99.90;;;;;;5086482;28;20024;-68
2022/05/21 07:55:45;;;;;;;2.92;1.00;;;14.80;99.80;;;;;;5105445;28;20384;-69
2022/05/21 07:58:11;;;;;;;3.58;0.75;;;14.80;99.90;;;;;;5092419;28;20555;-68
2022/05/21 08:00:37;;;;;;;1.83;0.63;;;14.90;99.80;;;;;;5094429;28;20028;-70
2022/05/21 08:03:03;;;;;;;6.47;1.02;;;14.90;99.60;;;;;;5094283;28;20044;-67
2022/05/21 08:05:29;;;;;;;5.30;0.60;;;15.00;99.10;;;;;;5093769;28;20036;-66
2022/05/21 08:07:56;;;;;;;4.57;0.88;;;15.20;99.50;;;;;;5094744;28;20115;-66
2022/05/21 08:10:23;;;;;;;7.47;1.45;;;15.40;99.90;;;;;;5094285;28;20066;-66
2022/05/21 08:12:50;;;;;;;5.63;1.02;;;15.50;98.40;;;;;;5087872;28;20020;-64
2022/05/21 08:15:17;;;;;;;7.40;1.23;;;15.70;98.60;;;;;;5074234;28;20041;-65
2022/05/21 08:17:43;;;;;;;4.97;0.75;;;15.70;98.20;;;;;;5079082;28;20032;-65
2022/05/21 08:20:11;;;;;;;5.78;1.58;;;15.60;98.30;;;;;;5078019;28;20067;-67
2022/05/21 08:28:07;;;;;;;5.07;1.25;;;15.80;98.10;;;;;;5079035;28;20120;-65
2022/05/21 08:30:33;;;;;;;5.78;0.90;;;15.80;99.10;;;;;;5092262;28;20036;-66
2022/05/21 08:33:08;;;;;;;9.15;1.60;;;15.60;96.70;;;;;;5080304;28;20457;-66
2022/05/21 08:35:35;;;;;;;8.85;1.05;;;15.60;99.10;;;;;;5093763;28;20536;-66
2022/05/21 08:38:01;;;;;;;2.00;0.93;;;15.60;98.20;;;;;;5106148;28;20036;-66
2022/05/21 08:40:43;;;;;;;6.20;1.23;;;15.90;98.70;;;;;;5074217;28;20044;-66
2022/05/21 08:43:31;;;;;;;3.63;0.70;;;16.20;96.80;;;;;;5083698;28;20492;-65
2022/05/21 08:46:38;;;;;;;6.00;1.48;;;16.10;96.40;;;;;;5077236;28;20431;-66
2022/05/21 08:49:18;;;;;;;4.05;0.73;;;16.30;96.90;;;;;;5082815;28;20036;-66
2022/05/21 08:51:49;;;;;;;3.05;0.70;;;16.60;96.30;;;;;;5084142;28;20481;-67
2022/05/21 08:54:23;;;;;;;7.03;1.85;;;16.50;96.60;;;;;;5107283;27;20423;-68
2022/05/21 08:56:50;;;;;;;2.30;0.77;;;16.40;96.20;;;;;;5085035;28;20020;-67
2022/05/21 08:59:19;;;;;;;4.40;0.60;;;16.50;95.50;;;;;;5089936;28;20024;-66
2022/05/21 09:01:44;;;;;;;3.70;0.98;;;16.80;96.00;;;;;;5077468;28;20074;-66
2022/05/21 09:04:12;;;;;;;6.78;0.80;;;17.00;95.10;;;;;;5082900;28;20024;-67
2022/05/21 09:06:38;;;;;;;;;;;17.30;95.50;;;;;;5091040;28;20476;-67
2022/05/21 09:09:03;;;;;;;4.40;0.95;;;17.50;93.60;;;;;;5078843;28;19915;-67
2022/05/21 09:11:38;;;;;;;3.17;0.50;;;17.20;92.40;;;;;;5083430;28;20039;-67
2022/05/21 09:14:27;;;;;;;6.45;0.90;;;17.00;92.10;;;;;;5073868;28;20021;-66
2022/05/21 09:16:57;;;;;;;2.47;0.70;;;16.80;92.70;;;;;;5084121;28;20112;-66
2022/05/21 09:19:33;;;;;;;6.07;1.60;;;16.60;92.90;;;;;;5073074;28;20040;-66
2022/05/21 09:22:05;;;;;;;3.15;1.05;;;16.50;93.70;;;;;;5110764;27;20473;-65
2022/05/21 09:24:50;;;;;;;6.50;0.98;;;16.40;94.30;;;;;;5086671;28;20063;-64
2022/05/21 09:27:42;;;;;;;5.40;0.95;;;16.30;95.00;;;;;;5087191;28;20144;-65
2022/05/21 09:30:25;;;;;;;5.53;1.00;;;16.20;93.20;;;;;;5088570;28;20496;-65
2022/05/21 09:32:54;;;;;;;8.13;0.90;;;15.90;94.30;;;;;;5074864;28;20058;-64
2022/05/21 09:35:27;;;;;;;5.20;1.02;;;16.00;95.70;;;;;;5077486;28;20040;-65
2022/05/21 09:37:53;;;;;;;6.68;1.27;;;16.20;96.60;;;;;;5079739;28;20056;-65
2022/05/21 09:40:25;;;;;;;8.00;0.98;;;16.60;95.50;;;;;;5095756;28;20029;-65
2022/05/21 09:45:37;;;;;;;5.13;0.80;;;16.90;95.00;;;;;;5093434;28;20026;-64
2022/05/21 09:48:05;;;;;;;4.32;0.68;;;16.50;96.50;;;;;;5091677;28;20044;-64
2022/05/21 09:50:41;;;;;;;5.03;1.17;;;16.30;95.80;;;;;;5090523;28;20024;-65
2022/05/21 09:53:32;;;;;;;7.03;0.93;;;16.20;95.50;;;;;;5090167;28;20035;-64
2022/05/21 09:56:19;;;;;;;6.43;0.85;;;16.30;96.20;;;;;;5088409;28;20027;-65
2022/05/21 09:58:46;;;;;;;11.48;1.77;;;16.40;95.60;;;;;;5074202;28;20052;-64
2022/05/21 10:01:15;;;;;;;4.78;0.68;;;16.50;96.20;;;;;;5085236;28;20502;-63
2022/05/21 10:03:45;;;;;;;8.43;0.98;;;17.00;94.40;;;;;;5072173;28;20033;-67
2022/05/21 10:06:31;;;;;;;4.88;0.93;;;17.30;94.80;;;;;;5078608;28;20111;-67
2022/05/21 10:12:10;;;;;;;3.58;0.98;;;17.80;94.50;;;;;;5083863;28;20081;-66
2022/05/21 10:15:13;;;;;;;5.38;0.70;;;18.40;93.60;;;;;;5082645;28;20253;-67
2022/05/21 10:18:01;;;;;;;5.35;0.75;;;19.00;91.10;;;;;;5065919;28;20068;-67
2022/05/21 10:20:41;;;;;;;3.40;0.95;;;19.10;91.10;;;;;;5094117;28;20087;-68
2022/05/21 10:23:40;;;;;;;3.80;0.85;;;19.10;89.60;;;;;;5091203;28;20115;-67
2022/05/21 10:26:35;;;;;;;5.28;0.75;;;18.60;90.00;;;;;;5090997;28;20530;-68
2022/05/21 10:29:20;;;;;;;5.88;0.88;;;18.70;90.30;;;;;;5091929;28;20071;-67
2022/05/21 10:32:05;;;;;;;4.05;0.77;;;18.80;91.50;;;;;;5091680;28;20515;-66
2022/05/21 10:34:47;;;;;;;4.68;1.25;;;19.40;90.60;;;;;;5094910;28;20051;-67
2022/05/21 10:37:21;;;;;;;5.70;0.85;;;19.40;91.20;;;;;;5081441;28;20453;-68
2022/05/21 10:40:07;;;;;;;6.53;0.90;;;19.00;88.90;;;;;;5090757;28;20035;-69
2022/05/21 10:42:38;;;;;;;3.08;0.60;;;18.40;90.40;;;;;;5093229;28;20543;-68
2022/05/21 10:45:10;;;;;;;5.57;0.70;;;18.40;90.50;;;;;;5093737;28;20047;-69
2022/05/21 10:47:39;;;;;;;4.55;0.82;;;18.30;90.60;;;;;;5094652;28;20442;-70
2022/05/21 10:50:26;;;;;;;3.35;1.42;;;18.40;91.10;;;;;;5090937;28;20032;-67
2022/05/21 10:53:19;;;;;;;1.48;0.60;;;18.80;90.60;;;;;;5086343;28;20028;-69
2022/05/21 10:55:57;;;;;;;4.65;0.82;;;18.60;90.80;;;;;;5093004;28;20480;-69
2022/05/21 10:58:49;;;;;;;4.50;1.10;;;18.30;88.70;;;;;;5091532;28;20109;-69
2022/05/21 11:01:17;;;;;;;6.78;0.98;;;18.50;90.60;;;;;;5090286;28;20053;-69
2022/05/21 11:03:55;;;;;;;4.20;0.90;;;18.80;90.70;;;;;;5091481;28;20472;-68
2022/05/21 11:06:26;;;;;;;;;;;19.10;89.90;;;;;;5092273;28;20039;-68
2022/05/21 11:09:02;;;;;;;4.13;0.60;;;19.00;90.80;;;;;;5081153;28;19962;-68
2022/05/21 11:11:37;;;;;;;5.25;1.10;;;19.10;88.80;;;;;;5091021;28;20062;-68
2022/05/21 11:14:05;;;;;;;5.82;0.90;;;19.20;89.70;;;;;;5097551;28;20084;-68
2022/05/21 11:16:47;;;;;;;6.90;1.33;;;19.10;86.20;;;;;;5090905;28;20027;-68
2022/05/21 11:19:29;;;;;;;6.88;1.52;;;19.10;89.30;;;;;;5091214;28;20145;-68
2022/05/21 11:22:25;;;;;;;4.65;0.85;;;19.20;92.60;;;;;;5089540;28;20491;-67
2022/05/21 11:25:29;;;;;;;6.20;1.23;;;19.20;90.60;;;;;;5090389;28;20420;-69
2022/05/21 11:27:59;;;;;;;5.90;0.70;;;19.60;90.40;;;;;;5089214;28;20051;-68
2022/05/21 11:30:25;;;;;;;4.10;0.60;;;19.30;89.60;;;;;;5089248;28;20488;-71
2022/05/21 11:38:40;;;;;;;2.80;0.80;;;19.60;86.70;;;;;;5092956;28;20031;-68
2022/05/21 11:41:24;;;;;;;5.30;0.93;;;19.80;86.30;;;;;;5095172;28;20476;-68
2022/05/21 11:46:43;;;;;;;3.90;0.70;;;19.50;80.20;;;;;;5086949;28;20549;-67
2022/05/21 11:49:38;;;;;;;7.28;0.73;;;19.50;84.10;;;;;;5094724;28;20039;-69
2022/05/21 11:52:25;;;;;;;3.85;1.45;;;19.80;80.00;;;;;;5075531;28;20099;-65
2022/05/21 11:54:51;;;;;;;7.18;1.52;;;20.00;81.70;;;;;;5092768;28;20391;-67
2022/05/21 11:57:36;;;;;;;2.35;0.75;;;20.40;83.10;;;;;;5095148;28;20024;-71
2022/05/21 12:00:08;;;;;;;3.47;0.88;;;20.90;79.70;;;;;;5099374;28;20488;-69
2022/05/21 12:02:38;;;;;;;4.60;0.82;;;20.90;78.70;;;;;;5095302;28;20031;-69
2022/05/21 12:05:05;;;;;;;8.45;2.67;;;21.20;81.60;;;;;;5095527;28;20028;-69
2022/05/21 12:07:48;;;;;;;1.65;0.50;;;21.70;81.40;;;;;;5094968;28;20028;-68
2022/05/21 12:10:17;;;;;;;1.80;0.65;;;21.50;76.60;;;;;;5094243;28;20032;-70
2022/05/21 12:13:01;;;;;;;1.85;0.60;;;21.60;80.10;;;;;;5095342;28;20028;-69
2022/05/21 12:15:48;;;;;;;6.07;0.90;;;21.40;76.10;;;;;;5094723;28;20046;-69
2022/05/21 12:18:35;;;;;;;6.15;1.10;;;20.60;77.90;;;;;;5085010;28;20484;-68
2022/05/21 12:21:02;;;;;;;6.95;0.70;;;20.90;84.40;;;;;;5093277;28;20113;-68
2022/05/21 12:23:33;;;;;;;7.18;1.60;;;21.80;85.90;;;;;;5094786;28;20035;-69
2022/05/21 12:26:12;;;;;;;4.82;1.02;;;22.20;84.50;;;;;;5094735;28;20115;-69
2022/05/21 12:28:50;;;;;;;4.90;1.15;;;21.60;85.70;;;;;;5093816;28;20064;-68
2022/05/21 12:31:31;;;;;;;6.57;1.63;;;21.20;89.20;;;;;;5083206;28;20016;-67
2022/05/21 12:34:21;;;;;;;10.68;1.15;;;21.60;87.00;;;;;;5092913;28;20028;-68
2022/05/21 12:36:55;;;;;;;8.02;0.68;;;21.80;89.50;;;;;;5093909;28;20476;-67
2022/05/21 12:39:45;;;;;;;7.40;1.33;;;22.40;88.30;;;;;;5094877;28;20016;-68
2022/05/21 12:42:25;;;;;;;7.53;1.17;;;21.80;85.20;;;;;;5093957;28;20119;-68
2022/05/21 12:44:52;;;;;;;5.57;1.00;;;21.90;87.60;;;;;;5093578;28;20400;-70
2022/05/21 12:47:44;;;;;;;9.93;1.15;;;21.70;86.40;;;;;;5094582;28;20039;-67
2022/05/21 12:50:17;;;;;;;5.20;1.52;;;21.40;87.10;;;;;;5089249;28;20064;-67
2022/05/21 12:52:49;;;;;;;7.97;1.13;;;21.90;90.80;;;;;;5094316;28;20032;-67
2022/05/21 12:55:22;;;;;;;5.15;1.42;;;22.80;90.20;;;;;;5094380;28;20020;-67
2022/05/21 12:57:49;;;;;;;8.50;2.05;;;23.30;86.90;;;;;;5093879;28;20165;-67
2022/05/21 13:00:18;;;;;;;6.22;1.15;;;22.10;83.80;;;;;;5093623;28;20020;-66
2022/05/21 13:02:53;;;;;;;7.70;1.35;;;21.50;87.00;;;;;;5093823;28;20036;-65
2022/05/21 13:05:25;;;;;;;6.70;1.83;;;21.40;90.80;;;;;;5093743;28;20388;-68
2022/05/21 13:07:53;;;;;;;7.60;1.50;;;21.40;87.40;;;;;;5093826;28;20476;-65
2022/05/21 13:10:28;;;;;;;6.90;1.05;;;21.30;87.20;;;;;;5093518;28;20416;-66
2022/05/21 13:13:02;;;;;;;6.43;1.02;;;20.70;89.70;;;;;;5093630;28;20032;-66
2022/05/21 13:15:39;;;;;;;5.45;1.15;;;20.90;91.00;;;;;;5093502;28;20017;-66
2022/05/21 13:18:10;;;;;;;6.82;1.63;;;21.10;90.30;;;;;;5093538;28;20024;-65
2022/05/21 13:20:47;;;;;;;9.32;1.50;;;21.10;88.60;;;;;;5093447;28;20042;-65
2022/05/21 13:23:43;;;;;;;8.13;1.13;;;20.60;90.80;;;;;;5093718;28;20583;-64
2022/05/21 13:26:19;;;;;;;9.80;1.30;;;19.90;90.00;;;;;;5093688;28;20047;-64
2022/05/21 13:28:45;;;;;;;4.47;1.13;;;19.70;91.90;;;;;;5093555;28;20071;-65
2022/05/21 13:31:18;;;;;;;10.25;1.20;;;19.50;90.10;;;;;;5093512;28;20060;-64
2022/05/21 13:33:49;;;;;;;7.97;1.70;;;19.10;91.80;;;;;;5092592;28;20059;-65